Time;durP1;ratioP1;P1;durP2;ratioP2;P2;SDS_P1;SDS_P2;PMS_P1;PMS_P2;Temp;Humidity;BMP_temperature;BMP_pressure;BME280_temperature;BME280_humidity;BME280_pressure;Samples;Min_cycle;Max_cycle;Signal;HPM_P1;HPM_P2
2023/04/06 00:01:39;;;;;;;8.30;3.30;;;;;;;12.02;81.02;98550.38;79154;1297;3012069;-64
2023/04/06 00:04:08;;;;;;;9.90;3.50;;;;;;;12.36;80.12;98551.42;77976;1297;3050479;-62
2023/04/06 00:06:36;;;;;;;6.70;4.00;;;;;;;12.86;78.54;98553.59;79192;1296;3013563;-64
2023/04/06 00:09:02;;;;;;;10.00;4.70;;;;;;;12.94;77.77;98553.61;79227;1295;3013553;-63
2023/04/06 00:11:30;;;;;;;11.10;6.00;;;;;;;12.78;78.07;98557.81;77938;1307;3049607;-64
2023/04/06 00:13:58;;;;;;;16.90;7.60;;;;;;;12.55;79.27;98556.91;79231;1300;3012892;-65
2023/04/06 00:16:25;;;;;;;9.80;5.50;;;;;;;12.22;80.24;98554.17;79214;1296;3011496;-65
2023/04/06 00:18:53;;;;;;;15.40;6.00;;;;;;;12.04;81.29;98545.26;77931;1298;3051179;-65
2023/04/06 00:21:20;;;;;;;13.00;5.80;;;;;;;11.94;81.59;98539.58;79216;1298;3013702;-64
2023/04/06 00:23:46;;;;;;;8.50;4.40;;;;;;;11.73;82.63;98541.06;79148;1299;3011888;-64
2023/04/06 00:26:14;;;;;;;7.60;4.30;;;;;;;12.25;81.67;98541.05;78033;1300;3026261;-65
2023/04/06 00:28:43;;;;;;;8.30;4.00;;;;;;;12.69;79.39;98537.48;79220;1300;3013674;-65
2023/04/06 00:31:10;;;;;;;17.00;4.40;;;;;;;12.75;78.75;98543.42;79186;1295;3013145;-64
2023/04/06 00:33:39;;;;;;;10.10;5.10;;;;;;;12.38;79.53;98541.95;77941;1300;3052172;-65
2023/04/06 00:36:06;;;;;;;12.50;5.70;;;;;;;12.22;79.96;98544.30;79266;1297;3013082;-64
2023/04/06 00:38:33;;;;;;;15.20;5.40;;;;;;;11.98;80.75;98543.61;79122;1298;3013053;-63
2023/04/06 00:41:02;;;;;;;13.30;5.80;;;;;;;11.72;82.18;98549.02;77988;1300;3050355;-64
2023/04/06 00:43:29;;;;;;;15.50;6.00;;;;;;;11.45;83.38;98545.38;79285;1300;3013125;-64
2023/04/06 00:45:56;;;;;;;8.10;4.30;;;;;;;11.24;84.56;98548.43;79266;1298;3011979;-62
2023/04/06 00:48:26;;;;;;;8.70;4.20;;;;;;;11.69;83.05;98552.20;77970;1300;3052018;-65
2023/04/06 00:50:53;;;;;;;10.30;4.90;;;;;;;12.09;81.04;98558.70;79297;1300;3012704;-65
2023/04/06 00:53:21;;;;;;;11.40;5.30;;;;;;;12.15;80.39;98561.71;79107;1300;3012196;-64
2023/04/06 00:55:50;;;;;;;15.70;6.30;;;;;;;11.79;81.42;98565.15;78038;1299;3049317;-65
2023/04/06 00:58:16;;;;;;;18.30;5.60;;;;;;;11.51;82.36;98564.35;79173;1297;3013687;-64
2023/04/06 01:00:54;;;;;;;17.50;6.90;;;;;;;11.36;82.88;98562.58;77937;1298;3069701;-64
2023/04/06 01:03:22;;;;;;;18.20;6.00;;;;;;;11.23;83.69;98562.84;79251;1297;3011537;-63
2023/04/06 01:05:52;;;;;;;12.90;4.20;;;;;;;11.07;84.42;98564.23;79183;1298;3011607;-64
2023/04/06 01:08:24;;;;;;;14.40;4.40;;;;;;;11.46;83.49;98562.27;77897;1300;3053200;-65
2023/04/06 01:10:54;;;;;;;14.40;4.80;;;;;;;11.84;81.42;98564.19;79240;1300;3011851;-63
2023/04/06 01:13:27;;;;;;;11.00;5.60;;;;;;;11.90;80.72;98565.48;77985;1300;3052995;-63
2023/04/06 01:16:05;;;;;;;13.50;6.40;;;;;;;11.60;82.06;98562.40;77897;1300;3052710;-64
2023/04/06 01:18:43;;;;;;;13.30;5.50;;;;;;;11.49;82.32;98560.14;77919;1300;3069475;-63
2023/04/06 01:21:23;;;;;;;13.40;5.90;;;;;;;11.25;83.13;98558.83;77930;1300;3051820;-63
2023/04/06 01:24:03;;;;;;;10.10;5.10;;;;;;;11.09;83.92;98560.44;77951;1300;3057053;-63
2023/04/06 01:26:36;;;;;;;9.40;3.50;;;;;;;10.91;85.12;98565.84;79245;1296;3011717;-64
2023/04/06 01:29:07;;;;;;;7.20;4.00;;;;;;;11.39;83.90;98566.68;77963;1297;3053953;-65
2023/04/06 01:31:34;;;;;;;7.70;4.00;;;;;;;11.92;81.65;98566.58;79164;1300;3018727;-64
2023/04/06 01:34:01;;;;;;;10.70;5.10;;;;;;;11.99;80.78;98563.55;79250;1299;3011855;-65
2023/04/06 01:36:29;;;;;;;12.20;5.60;;;;;;;11.83;81.05;98566.09;77969;1299;3025957;-66
2023/04/06 01:39:07;;;;;;;10.60;5.60;;;;;;;11.64;81.63;98569.69;77953;1300;3052090;-63
2023/04/06 01:41:36;;;;;;;12.20;5.80;;;;;;;11.43;82.72;98573.60;79215;1297;3013244;-63
2023/04/06 01:44:04;;;;;;;18.50;7.00;;;;;;;11.20;83.70;98578.99;79302;1296;3013907;-64
2023/04/06 01:46:33;;;;;;;11.20;4.40;;;;;;;11.11;84.56;98575.55;77968;1300;3049480;-64
2023/04/06 01:49:04;;;;;;;9.60;4.40;;;;;;;11.57;83.50;98578.60;79211;1296;3011840;-66
2023/04/06 01:51:37;;;;;;;9.90;5.30;;;;;;;11.98;81.71;98579.95;77934;1299;3053126;-65
2023/04/06 01:54:06;;;;;;;12.10;5.20;;;;;;;11.91;81.37;98579.61;79204;1296;3012944;-63
2023/04/06 01:56:50;;;;;;;12.10;5.40;;;;;;;11.79;82.09;98580.09;77934;1300;3051631;-62
2023/04/06 01:59:30;;;;;;;13.20;6.00;;;;;;;11.55;82.68;98582.78;77990;1297;3056964;-65
2023/04/06 02:01:57;;;;;;;14.80;6.60;;;;;;;11.33;83.82;98588.06;79287;1298;3015847;-64
2023/04/06 02:04:28;;;;;;;13.20;6.30;;;;;;;11.15;84.77;98590.48;78723;1297;3011828;-65
2023/04/06 02:07:06;;;;;;;7.60;3.90;;;;;;;11.00;85.67;98593.85;77933;1297;3049452;-64
2023/04/06 02:09:35;;;;;;;9.10;5.00;;;;;;;11.46;84.56;98593.01;79250;1299;3013127;-62
2023/04/06 02:12:04;;;;;;;7.10;4.50;;;;;;;11.89;82.36;98596.81;77980;1300;3026031;-65
2023/04/06 02:14:33;;;;;;;8.90;4.60;;;;;;;11.98;81.81;98597.16;79181;1297;3013032;-64
2023/04/06 02:17:03;;;;;;;8.50;4.90;;;;;;;11.85;82.11;98596.58;78004;1297;3029352;-64
2023/04/06 02:19:29;;;;;;;9.10;5.30;;;;;;;11.64;82.66;98595.95;79159;1300;3019046;-64
2023/04/06 02:21:56;;;;;;;10.80;6.60;;;;;;;11.50;83.21;98593.55;79150;1296;3011791;-65
2023/04/06 02:24:24;;;;;;;8.10;5.90;;;;;;;11.29;84.11;98594.69;77901;1297;3050790;-63
2023/04/06 02:26:51;;;;;;;3.80;2.60;;;;;;;11.07;85.12;98597.94;79237;1297;3013763;-65
2023/04/06 02:29:20;;;;;;;6.20;4.10;;;;;;;11.41;84.73;98600.03;79151;1297;3012927;-63
2023/04/06 02:31:49;;;;;;;7.00;3.60;;;;;;;11.87;82.96;98600.08;77933;1297;3051221;-64
2023/04/06 02:34:17;;;;;;;6.00;4.00;;;;;;;11.83;82.40;98601.13;79131;1298;3012650;-65
2023/04/06 02:36:48;;;;;;;6.50;5.30;;;;;;;11.66;82.98;98603.88;78661;1298;3013304;-65
2023/04/06 02:39:15;;;;;;;6.80;4.40;;;;;;;11.33;83.96;98609.41;79197;1298;3012900;-65
2023/04/06 02:41:43;;;;;;;7.00;4.50;;;;;;;11.12;85.26;98612.63;79197;1297;3011569;-62
2023/04/06 02:44:12;;;;;;;7.60;4.50;;;;;;;10.92;85.95;98616.41;77997;1300;3052599;-65
2023/04/06 02:46:44;;;;;;;3.80;2.80;;;;;;;10.77;87.06;98619.45;79206;1297;3012049;-63
2023/04/06 02:49:12;;;;;;;5.50;3.60;;;;;;;11.26;86.10;98610.64;78023;1300;3051675;-64
2023/04/06 02:51:39;;;;;;;6.50;4.60;;;;;;;11.66;83.85;98612.64;79195;1296;3018523;-63
2023/04/06 02:54:28;;;;;;;6.10;4.50;;;;;;;11.64;83.58;98612.78;77933;1300;3053762;-65
2023/04/06 02:56:55;;;;;;;6.90;5.10;;;;;;;11.50;83.86;98611.09;79170;1300;3013523;-65
2023/04/06 02:59:23;;;;;;;7.50;5.90;;;;;;;11.26;84.66;98619.98;79163;1300;3011881;-64
2023/04/06 03:02:01;;;;;;;7.30;5.20;;;;;;;10.98;85.87;98628.04;77977;1300;3069534;-64
2023/04/06 03:04:27;;;;;;;8.40;6.00;;;;;;;10.85;86.82;98631.27;79243;1297;3013632;-63
2023/04/06 03:06:55;;;;;;;4.90;3.40;;;;;;;10.77;87.55;98634.48;79175;1296;3011859;-64
2023/04/06 03:09:36;;;;;;;5.20;3.60;;;;;;;11.24;86.48;98631.11;78002;1298;3053334;-64
2023/04/06 03:12:03;;;;;;;6.00;4.10;;;;;;;11.67;84.34;98630.48;79232;1297;3011629;-63
2023/04/06 03:14:33;;;;;;;8.20;5.30;;;;;;;11.66;83.80;98627.20;78695;1297;3011671;-63
2023/04/06 03:17:01;;;;;;;7.50;5.10;;;;;;;11.53;84.09;98632.92;79250;1297;3013829;-62
2023/04/06 03:19:28;;;;;;;6.40;4.40;;;;;;;11.30;84.65;98635.05;79163;1296;3011615;-64
2023/04/06 03:21:59;;;;;;;5.90;4.50;;;;;;;10.97;85.98;98639.67;77886;1299;3057247;-64
2023/04/06 03:24:25;;;;;;;8.10;5.50;;;;;;;10.79;87.14;98642.08;79195;1297;3012991;-66
2023/04/06 03:26:52;;;;;;;3.90;2.90;;;;;;;10.71;87.90;98645.66;79213;1297;3013455;-63
2023/04/06 03:29:25;;;;;;;5.90;3.60;;;;;;;11.21;86.65;98639.45;77990;1299;3052568;-64
2023/04/06 03:31:51;;;;;;;5.30;3.60;;;;;;;11.51;84.83;98639.79;79241;1300;3013274;-65
2023/04/06 03:34:33;;;;;;;6.30;4.30;;;;;;;11.59;84.38;98640.57;78059;1300;3052376;-65
2023/04/06 03:37:05;;;;;;;5.10;3.80;;;;;;;11.52;84.56;98645.30;79092;1296;3011692;-62
2023/04/06 03:39:34;;;;;;;5.10;3.80;;;;;;;11.21;85.04;98640.34;78032;1297;3048079;-65
2023/04/06 03:42:01;;;;;;;6.20;4.30;;;;;;;10.97;86.22;98644.25;79245;1297;3018674;-64
2023/04/06 03:44:41;;;;;;;4.50;2.90;;;;;;;10.76;87.35;98646.34;77964;1299;3053208;-65
2023/04/06 03:47:08;;;;;;;4.00;2.70;;;;;;;11.11;86.73;98647.41;79305;1297;3013013;-63
2023/04/06 03:49:41;;;;;;;5.00;3.00;;;;;;;11.52;84.77;98644.05;77954;1297;3051345;-66
2023/04/06 03:52:09;;;;;;;5.20;3.20;;;;;;;11.61;84.35;98646.19;79233;1296;3011595;-63
2023/04/06 03:54:36;;;;;;;4.60;3.50;;;;;;;11.53;84.45;98646.80;79264;1297;3011559;-63
2023/04/06 03:57:04;;;;;;;5.30;3.60;;;;;;;11.18;85.24;98646.52;77912;1297;3050755;-64
2023/04/06 03:59:32;;;;;;;6.50;4.20;;;;;;;10.97;86.09;98654.21;79267;1300;3011682;-64
2023/04/06 04:02:00;;;;;;;7.80;4.90;;;;;;;10.75;87.25;98659.36;79580;1296;3011602;-64
2023/04/06 04:04:28;;;;;;;3.10;2.40;;;;;;;10.60;88.34;98658.01;78009;1296;3051536;-63
2023/04/06 04:06:55;;;;;;;4.20;2.40;;;;;;;11.01;87.89;98651.09;79346;1298;3012690;-64
2023/04/06 04:09:22;;;;;;;5.50;3.40;;;;;;;11.53;85.25;98652.96;79218;1296;3011555;-64
2023/04/06 04:11:51;;;;;;;5.40;3.40;;;;;;;11.53;84.69;98650.99;77838;1296;3050246;-64
2023/04/06 04:14:17;;;;;;;6.30;3.60;;;;;;;11.44;85.04;98653.23;79297;1300;3013620;-65
2023/04/06 04:16:45;;;;;;;5.70;3.90;;;;;;;11.26;85.15;98658.31;79056;1299;3011796;-64
2023/04/06 04:19:13;;;;;;;9.10;5.50;;;;;;;11.10;85.96;98664.95;77936;1300;3051789;-64
2023/04/06 04:21:44;;;;;;;6.80;4.20;;;;;;;10.94;86.70;98674.25;79166;1299;3012973;-64
2023/04/06 04:24:19;;;;;;;3.80;2.10;;;;;;;10.77;87.73;98674.25;77957;1297;3054297;-64
2023/04/06 04:26:46;;;;;;;4.10;2.70;;;;;;;11.29;86.30;98672.44;79260;1300;3016069;-64
2023/04/06 04:29:15;;;;;;;4.90;3.30;;;;;;;11.68;84.10;98677.00;79147;1300;3011686;-64
2023/04/06 04:31:43;;;;;;;5.10;3.60;;;;;;;11.61;83.52;98678.09;77950;1297;3069107;-64
2023/04/06 04:34:15;;;;;;;6.10;4.20;;;;;;;11.50;84.00;98682.30;79237;1300;3014019;-63
2023/04/06 04:36:47;;;;;;;6.90;4.30;;;;;;;11.25;84.96;98679.59;77988;1300;3055967;-64
2023/04/06 04:39:20;;;;;;;5.50;4.20;;;;;;;10.99;85.63;98680.50;79241;1296;3011766;-63
2023/04/06 04:41:51;;;;;;;7.50;5.30;;;;;;;10.74;87.01;98681.98;77896;1300;3054307;-64
2023/04/06 04:44:19;;;;;;;4.30;3.00;;;;;;;10.63;88.06;98690.66;79122;1301;3013338;-64
2023/04/06 04:46:47;;;;;;;5.60;3.30;;;;;;;11.03;86.97;98688.29;79106;1302;3011863;-62
2023/04/06 04:49:23;;;;;;;8.20;4.10;;;;;;;11.40;84.85;98693.89;77966;1300;3069339;-64
2023/04/06 04:51:52;;;;;;;6.70;4.50;;;;;;;11.38;84.40;98692.14;79159;1297;3014154;-66
2023/04/06 04:54:29;;;;;;;7.70;4.50;;;;;;;11.22;84.90;98699.15;77852;1297;3049740;-64
2023/04/06 04:56:57;;;;;;;8.80;5.50;;;;;;;11.06;85.63;98699.25;79218;1300;3012708;-63
2023/04/06 04:59:35;;;;;;;8.40;5.20;;;;;;;10.93;86.24;98707.39;77826;1302;3053354;-66
2023/04/06 05:02:10;;;;;;;7.00;3.40;;;;;;;10.70;87.12;98707.53;78609;1297;3013240;-64
2023/04/06 05:04:46;;;;;;;8.30;4.50;;;;;;;11.17;85.82;98706.13;77926;1297;3051118;-62
2023/04/06 05:07:20;;;;;;;8.20;4.40;;;;;;;11.58;83.88;98705.52;79393;1303;3011690;-63
2023/04/06 05:09:56;;;;;;;7.60;5.10;;;;;;;11.66;83.29;98704.53;77988;1300;3052570;-64
2023/04/06 05:12:25;;;;;;;7.50;4.80;;;;;;;11.43;83.94;98712.12;79291;1296;3013159;-64
2023/04/06 05:15:22;;;;;;;7.80;4.90;;;;;;;11.12;84.66;98712.64;77868;1303;3048323;-63
2023/04/06 05:17:52;;;;;;;9.20;5.40;;;;;;;10.90;85.75;98711.30;79274;1296;3011794;-64
2023/04/06 05:20:24;;;;;;;5.80;3.20;;;;;;;10.64;86.99;98716.91;77867;1297;3049509;-63
2023/04/06 05:22:51;;;;;;;6.20;3.90;;;;;;;11.15;86.09;98718.59;79339;1300;3014754;-63
2023/04/06 05:25:18;;;;;;;8.40;3.70;;;;;;;11.59;83.20;98707.71;79125;1300;3011623;-63
2023/04/06 05:27:46;;;;;;;6.60;4.70;;;;;;;11.66;82.67;98713.14;77980;1303;3052016;-63
2023/04/06 05:30:30;;;;;;;7.10;4.70;;;;;;;11.55;82.92;98717.48;78006;1300;3057472;-63
2023/04/06 05:32:58;;;;;;;5.30;3.80;;;;;;;11.29;83.42;98719.30;79218;1297;3013005;-63
2023/04/06 05:35:28;;;;;;;8.90;5.90;;;;;;;11.04;84.14;98720.95;78023;1297;3025996;-65
2023/04/06 05:37:57;;;;;;;8.90;5.80;;;;;;;10.85;85.13;98721.16;79168;1297;3011668;-66
2023/04/06 05:40:27;;;;;;;3.90;2.60;;;;;;;10.71;86.14;98724.73;78641;1302;3011921;-65
2023/04/06 05:42:55;;;;;;;6.10;3.80;;;;;;;11.22;85.40;98726.81;79149;1301;3013118;-65
2023/04/06 05:45:21;;;;;;;6.20;4.20;;;;;;;11.64;82.96;98723.12;79476;1296;3011857;-65
2023/04/06 05:47:53;;;;;;;9.30;5.10;;;;;;;11.74;82.28;98719.89;78038;1297;3055937;-64
2023/04/06 05:50:25;;;;;;;8.80;5.80;;;;;;;11.60;82.51;98722.70;79431;1297;3011849;-65
2023/04/06 05:52:53;;;;;;;13.40;6.00;;;;;;;11.38;83.52;98729.27;78125;1299;3053168;-63
2023/04/06 05:55:21;;;;;;;9.50;5.80;;;;;;;11.27;83.75;98732.58;79405;1300;3012724;-65
2023/04/06 05:57:52;;;;;;;10.10;5.70;;;;;;;11.00;84.37;98734.75;78074;1300;3052113;-66
2023/04/06 06:00:20;;;;;;;5.00;2.90;;;;;;;10.88;85.20;98734.97;79464;1299;3013175;-67
2023/04/06 06:02:53;;;;;;;7.20;3.80;;;;;;;11.33;83.88;98738.65;78113;1300;3051568;-65
2023/04/06 06:05:22;;;;;;;5.80;3.80;;;;;;;11.68;81.56;98734.95;79355;1297;3012789;-65
2023/04/06 06:07:52;;;;;;;7.50;4.40;;;;;;;11.70;80.89;98740.00;78836;1298;3011578;-64
2023/04/06 06:10:19;;;;;;;8.00;4.80;;;;;;;11.51;81.23;98746.55;79335;1296;3018986;-66
2023/04/06 06:12:46;;;;;;;8.10;4.70;;;;;;;11.37;81.56;98750.27;79349;1302;3011576;-67
2023/04/06 06:15:14;;;;;;;7.40;4.70;;;;;;;11.23;82.48;98751.48;78118;1303;3026024;-69
2023/04/06 06:17:44;;;;;;;9.00;5.10;;;;;;;11.20;82.96;98755.38;79352;1302;3013400;-65
2023/04/06 06:20:13;;;;;;;5.20;2.70;;;;;;;11.04;83.60;98753.40;78814;1297;3011849;-65
2023/04/06 06:22:40;;;;;;;5.90;3.70;;;;;;;11.51;82.64;98756.20;79595;1297;3013720;-67
2023/04/06 06:25:11;;;;;;;5.60;3.80;;;;;;;11.98;80.09;98757.90;78773;1298;3011621;-65
2023/04/06 06:27:38;;;;;;;7.60;4.50;;;;;;;12.06;79.97;98761.55;79264;1302;3011846;-62
2023/04/06 06:30:05;;;;;;;8.40;5.20;;;;;;;11.90;79.57;98762.52;79155;1300;3011763;-63
2023/04/06 06:32:34;;;;;;;8.70;5.80;;;;;;;11.73;80.68;98767.88;78082;1300;3052851;-64
2023/04/06 06:35:00;;;;;;;7.80;5.10;;;;;;;11.50;81.70;98768.87;79394;1299;3013350;-63
2023/04/06 06:37:28;;;;;;;7.40;5.20;;;;;;;11.40;81.92;98771.42;79269;1296;3011630;-65
2023/04/06 06:39:56;;;;;;;7.60;4.80;;;;;;;11.28;82.11;98770.58;78024;1300;3050222;-63
2023/04/06 06:42:22;;;;;;;4.40;2.70;;;;;;;11.29;82.60;98767.16;79232;1298;3013615;-63
2023/04/06 06:45:04;;;;;;;5.40;3.50;;;;;;;11.84;80.73;98762.97;78065;1300;3052494;-64
2023/04/06 06:47:31;;;;;;;5.30;3.50;;;;;;;12.40;78.41;98765.34;79234;1301;3014715;-62
2023/04/06 06:49:57;;;;;;;7.10;4.00;;;;;;;12.50;77.63;98763.35;79146;1298;3011603;-62
2023/04/06 06:52:29;;;;;;;7.20;4.60;;;;;;;12.43;77.41;98768.48;77981;1297;3056721;-65
2023/04/06 06:54:56;;;;;;;5.80;4.20;;;;;;;12.32;77.65;98775.61;79267;1296;3013804;-65
2023/04/06 06:57:23;;;;;;;5.70;4.00;;;;;;;12.13;77.84;98775.33;79128;1297;3011486;-62
2023/04/06 06:59:51;;;;;;;6.90;3.70;;;;;;;12.00;78.74;98775.45;77978;1300;3025670;-61
2023/04/06 07:02:18;;;;;;;6.00;3.60;;;;;;;12.01;78.82;98776.27;79288;1300;3012910;-64
2023/04/06 07:04:48;;;;;;;4.20;2.50;;;;;;;11.93;78.89;98780.58;79212;1297;3011639;-64
2023/04/06 07:07:16;;;;;;;3.70;2.50;;;;;;;12.40;77.39;98774.83;78098;1300;3056071;-67
2023/04/06 07:09:43;;;;;;;4.90;2.90;;;;;;;12.94;75.41;98776.29;79191;1298;3013183;-64
2023/04/06 07:12:10;;;;;;;4.40;2.50;;;;;;;12.91;74.57;98774.27;79134;1297;3011459;-67
2023/04/06 07:14:39;;;;;;;5.00;3.20;;;;;;;12.92;74.98;98777.91;78193;1300;3052961;-66
2023/04/06 07:17:06;;;;;;;5.10;3.50;;;;;;;12.82;75.41;98780.66;79265;1300;3013140;-65
2023/04/06 07:19:33;;;;;;;6.00;3.30;;;;;;;12.67;75.64;98784.59;79341;1297;3011801;-66
2023/04/06 07:22:05;;;;;;;4.40;2.90;;;;;;;12.53;76.50;98788.27;77990;1299;3057104;-68
2023/04/06 07:24:32;;;;;;;4.10;2.80;;;;;;;12.53;76.34;98785.09;79220;1297;3013325;-65
2023/04/06 07:27:00;;;;;;;6.40;3.10;;;;;;;12.41;76.65;98787.92;79193;1297;3012940;-65
2023/04/06 07:29:28;;;;;;;5.20;2.70;;;;;;;12.44;76.93;98787.17;78120;1300;3053253;-67
2023/04/06 07:31:55;;;;;;;2.60;1.30;;;;;;;12.48;77.02;98787.71;79415;1300;3013205;-67
2023/04/06 07:34:23;;;;;;;3.90;2.10;;;;;;;13.12;75.37;98794.23;79358;1296;3013464;-66
2023/04/06 07:36:53;;;;;;;4.30;2.10;;;;;;;13.69;73.08;98795.49;78131;1297;3058327;-65
2023/04/06 07:39:21;;;;;;;5.70;2.50;;;;;;;13.91;72.14;98797.21;79468;1300;3011967;-63
2023/04/06 07:41:50;;;;;;;5.40;2.40;;;;;;;13.78;71.59;98796.54;78711;1298;3011719;-65
2023/04/06 07:44:17;;;;;;;4.00;2.40;;;;;;;13.61;71.53;98800.77;79178;1300;3014714;-66
2023/04/06 07:46:44;;;;;;;6.80;3.00;;;;;;;13.54;71.88;98800.96;79104;1302;3011361;-65
2023/04/06 07:49:13;;;;;;;4.80;2.80;;;;;;;13.44;72.76;98803.40;78006;1297;3070583;-64
2023/04/06 07:51:40;;;;;;;5.00;3.50;;;;;;;13.16;73.80;98805.86;79367;1303;3013580;-64
2023/04/06 07:54:12;;;;;;;4.90;3.80;;;;;;;12.97;74.89;98806.48;78686;1296;3012627;-64
2023/04/06 07:56:40;;;;;;;4.30;3.00;;;;;;;12.76;75.76;98803.81;79268;1297;3013618;-63
2023/04/06 07:59:07;;;;;;;6.10;3.10;;;;;;;12.71;76.06;98808.05;79244;1296;3013688;-63
2023/04/06 08:01:35;;;;;;;5.20;3.90;;;;;;;12.60;76.74;98813.27;78037;1300;3051368;-63
2023/04/06 08:04:02;;;;;;;3.70;2.40;;;;;;;12.51;77.38;98811.02;79406;1300;3013370;-65
2023/04/06 08:06:29;;;;;;;4.30;2.90;;;;;;;12.95;75.75;98813.13;79313;1300;3011641;-69
2023/04/06 08:09:01;;;;;;;2.70;2.00;;;;;;;13.35;73.86;98812.39;78033;1297;3056856;-64
2023/04/06 08:11:27;;;;;;;5.50;2.70;;;;;;;13.44;73.52;98815.73;79251;1296;3013709;-64
2023/04/06 08:13:56;;;;;;;4.20;2.70;;;;;;;13.19;73.95;98813.35;79416;1298;3011516;-66
2023/04/06 08:16:24;;;;;;;6.80;2.40;;;;;;;12.88;74.73;98814.04;78161;1303;3052839;-64
2023/04/06 08:18:52;;;;;;;3.60;2.60;;;;;;;12.63;75.85;98816.92;79169;1302;3012998;-68
2023/04/06 08:21:18;;;;;;;5.10;3.10;;;;;;;12.41;76.79;98820.48;79291;1297;3011982;-66
2023/04/06 08:23:47;;;;;;;6.10;3.00;;;;;;;12.27;77.66;98821.66;78200;1297;3055823;-66
2023/04/06 08:26:14;;;;;;;2.80;2.40;;;;;;;12.14;78.33;98828.15;79185;1297;3019103;-65
2023/04/06 08:28:43;;;;;;;4.50;2.80;;;;;;;11.97;78.88;98832.98;79337;1297;3013347;-64
2023/04/06 08:31:11;;;;;;;7.70;3.50;;;;;;;11.80;79.91;98831.00;78386;1300;3053329;-65
2023/04/06 08:33:39;;;;;;;6.40;3.20;;;;;;;12.31;78.83;98832.61;79479;1300;3013954;-66
2023/04/06 08:36:09;;;;;;;8.40;3.40;;;;;;;12.62;76.90;98838.98;79252;1297;3012425;-64
2023/04/06 08:38:37;;;;;;;10.10;4.20;;;;;;;12.39;77.26;98833.00;77892;1300;3055915;-65
2023/04/06 08:41:12;;;;;;;8.10;4.20;;;;;;;12.21;78.04;98840.58;79285;1296;3014594;-65
2023/04/06 08:43:44;;;;;;;8.40;4.30;;;;;;;12.18;78.56;98846.99;77920;1300;3050599;-65
2023/04/06 08:46:11;;;;;;;6.50;3.40;;;;;;;12.13;78.79;98848.54;79277;1300;3011711;-64
2023/04/06 08:48:40;;;;;;;8.50;3.80;;;;;;;11.84;80.00;98847.71;77977;1300;3052715;-64
2023/04/06 08:51:06;;;;;;;5.80;3.50;;;;;;;11.56;81.41;98849.29;79440;1296;3012750;-66
2023/04/06 08:53:33;;;;;;;5.40;3.10;;;;;;;11.48;81.84;98850.96;79257;1297;3011787;-66
2023/04/06 08:56:01;;;;;;;6.80;2.80;;;;;;;11.94;80.95;98854.91;78189;1297;3048595;-66
2023/04/06 08:58:32;;;;;;;4.60;2.50;;;;;;;12.05;80.14;98860.02;79354;1300;3012921;-67
2023/04/06 09:01:00;;;;;;;5.30;2.70;;;;;;;12.19;79.90;98860.37;78082;1300;3052046;-65
2023/04/06 09:03:28;;;;;;;3.60;2.20;;;;;;;11.98;80.44;98865.98;79375;1300;3015647;-66
2023/04/06 09:05:56;;;;;;;4.30;1.80;;;;;;;11.78;81.34;98869.28;79314;1297;3011982;-66
2023/04/06 09:08:24;;;;;;;3.70;2.30;;;;;;;11.50;82.48;98867.80;78187;1300;3056180;-66
2023/04/06 09:10:51;;;;;;;3.50;1.90;;;;;;;11.39;83.69;98870.93;79577;1297;3012910;-66
2023/04/06 11:59:15;;;;;;;4.30;1.40;;;;;;;9.81;80.32;99041.57;80052;1299;3013270;-65
2023/04/06 12:01:45;;;;;;;1.70;1.20;;;;;;;10.25;79.65;99037.34;79031;1302;3014717;-64
2023/04/06 12:04:14;;;;;;;2.50;1.60;;;;;;;10.85;77.17;99040.02;78186;1301;3052034;-66
2023/04/06 12:06:42;;;;;;;4.80;2.80;;;;;;;11.04;75.65;99040.46;79577;1301;3011628;-65
2023/04/06 12:09:09;;;;;;;7.90;4.40;;;;;;;11.01;75.04;99038.73;79280;1299;3013418;-63
2023/04/06 12:11:36;;;;;;;6.00;3.30;;;;;;;10.97;75.12;99044.43;76068;1301;3056980;-66
2023/04/06 12:14:05;;;;;;;6.70;3.80;;;;;;;10.71;75.56;99045.16;79524;1302;3013618;-66
2023/04/06 12:16:35;;;;;;;8.00;4.10;;;;;;;10.81;75.55;99040.83;79029;1301;3013462;-64
2023/04/06 12:19:01;;;;;;;8.70;4.30;;;;;;;10.98;75.68;99038.42;79768;1301;3013381;-64
2023/04/06 12:21:30;;;;;;;5.20;3.70;;;;;;;10.96;75.73;99042.56;79185;1301;3011583;-65
2023/04/06 12:23:58;;;;;;;6.50;3.40;;;;;;;11.04;74.20;99045.02;79207;1298;3069365;-64
2023/04/06 12:26:25;;;;;;;6.20;3.10;;;;;;;10.91;74.38;99043.30;79932;1297;3012871;-65
2023/04/06 12:28:52;;;;;;;5.30;2.50;;;;;;;10.81;74.33;99047.11;79208;1300;3011542;-64
2023/04/06 12:31:21;;;;;;;2.70;1.50;;;;;;;10.77;74.17;99048.95;78007;1301;3028867;-64
2023/04/06 12:33:56;;;;;;;4.30;1.30;;;;;;;10.69;73.61;99047.04;78699;1301;3011674;-65
2023/04/06 12:36:23;;;;;;;3.30;1.40;;;;;;;10.61;74.50;99048.27;79229;1301;3012949;-65
2023/04/06 12:38:51;;;;;;;2.10;1.20;;;;;;;10.56;74.89;99049.48;79293;1300;3011516;-65
2023/04/06 12:41:19;;;;;;;2.40;0.60;;;;;;;10.57;74.90;99053.09;78207;1301;3068727;-64
2023/04/06 12:43:46;;;;;;;1.70;0.90;;;;;;;11.01;73.84;99051.35;79180;1299;3014378;-64
2023/04/06 12:46:13;;;;;;;4.60;0.80;;;;;;;11.49;71.99;99052.53;79228;1297;3011929;-64
2023/04/06 12:48:41;;;;;;;2.10;1.00;;;;;;;11.58;70.33;99050.55;78126;1301;3052632;-63
2023/04/06 12:51:08;;;;;;;2.10;0.70;;;;;;;11.52;70.15;99053.41;79349;1301;3019158;-64
2023/04/06 12:53:36;;;;;;;2.80;1.00;;;;;;;11.25;71.07;99060.02;79217;1301;3011961;-64
2023/04/06 12:56:12;;;;;;;2.10;0.90;;;;;;;10.94;70.74;99063.02;78214;1298;3069013;-67
2023/04/06 12:58:44;;;;;;;2.80;1.40;;;;;;;10.64;71.76;99067.70;78478;1301;3050909;-65
2023/04/06 13:01:12;;;;;;;2.10;0.90;;;;;;;10.27;73.61;99069.42;79376;1295;3013748;-65
2023/04/06 13:03:42;;;;;;;3.10;1.20;;;;;;;10.37;74.06;99066.48;81447;1298;3011335;-65
2023/04/06 13:06:09;;;;;;;3.90;1.20;;;;;;;10.55;73.38;99070.35;81988;1297;3012943;-66
2023/04/06 13:08:37;;;;;;;3.50;1.20;;;;;;;10.72;72.59;99068.02;81963;1301;3011209;-66
2023/04/06 13:11:08;;;;;;;5.70;1.60;;;;;;;10.62;72.23;99069.05;80611;1301;3052563;-64
2023/04/06 13:13:35;;;;;;;3.40;1.50;;;;;;;10.39;72.37;99070.70;81935;1296;3011406;-66
2023/04/06 13:16:06;;;;;;;2.40;1.40;;;;;;;10.27;72.67;99070.08;80708;1298;3026827;-64
2023/04/06 13:18:35;;;;;;;3.00;1.80;;;;;;;10.23;72.69;99072.43;81937;1298;3011333;-62
2023/04/06 13:21:05;;;;;;;3.30;1.80;;;;;;;9.98;73.03;99076.53;81417;1298;3011323;-64
2023/04/06 13:23:32;;;;;;;4.00;2.10;;;;;;;10.08;73.04;99072.73;81970;1297;3011255;-63
2023/04/06 13:26:00;;;;;;;3.50;2.00;;;;;;;10.21;72.48;99080.41;81999;1297;3011387;-66
2023/04/06 13:28:30;;;;;;;3.80;1.90;;;;;;;10.04;72.75;99082.27;80718;1298;3051959;-63
2023/04/06 13:30:58;;;;;;;3.70;1.70;;;;;;;10.02;72.85;99085.86;81938;1297;3013086;-66
2023/04/06 13:33:26;;;;;;;4.30;1.60;;;;;;;9.75;74.26;99088.85;82095;1295;3011247;-66
2023/04/06 13:35:53;;;;;;;4.60;1.70;;;;;;;9.74;74.92;99089.91;80850;1293;3048400;-65
2023/04/06 13:38:24;;;;;;;5.50;2.80;;;;;;;9.84;74.95;99086.52;82113;1293;3010852;-63
2023/04/06 13:40:52;;;;;;;4.50;2.70;;;;;;;9.87;74.34;99095.58;80842;1298;3026332;-63
2023/04/06 13:43:20;;;;;;;6.30;3.40;;;;;;;9.84;73.90;99091.06;82083;1294;3018080;-64
2023/04/06 13:45:50;;;;;;;7.50;4.20;;;;;;;9.72;74.11;99096.65;82109;1294;3011298;-65
2023/04/06 13:48:18;;;;;;;5.60;3.30;;;;;;;9.73;74.91;99095.77;80855;1293;3050377;-66
2023/04/06 13:50:45;;;;;;;6.50;3.70;;;;;;;9.86;74.39;99094.78;82130;1294;3018553;-67
2023/04/06 13:53:12;;;;;;;6.60;4.30;;;;;;;9.81;73.84;99095.98;82158;1295;3011081;-66
2023/04/06 13:55:40;;;;;;;5.30;3.40;;;;;;;9.90;73.63;99089.42;80850;1295;3025073;-62
2023/04/06 13:58:06;;;;;;;8.10;3.80;;;;;;;9.94;72.90;99090.05;82126;1295;3013051;-64
2023/04/06 14:00:34;;;;;;;7.20;3.80;;;;;;;9.96;72.69;99096.56;82130;1294;3011182;-65
2023/04/06 14:03:21;;;;;;;7.90;4.00;;;;;;;10.04;72.91;99097.13;80869;1295;3050168;-65
2023/04/06 14:05:49;;;;;;;6.40;3.20;;;;;;;10.01;72.66;99091.57;82096;1294;3011393;-65
2023/04/06 14:08:16;;;;;;;6.30;3.10;;;;;;;9.90;72.93;99091.55;82091;1294;3013553;-65
2023/04/06 14:10:44;;;;;;;6.50;3.20;;;;;;;9.92;72.68;99095.08;80802;1294;3052294;-63
2023/04/06 14:13:11;;;;;;;10.60;3.70;;;;;;;9.79;72.85;99099.76;82117;1298;3012750;-66